Time;durP1;ratioP1;P1;durP2;ratioP2;P2;SDS_P1;SDS_P2;PMS_P1;PMS_P2;Temp;Humidity;BMP_temperature;BMP_pressure;BME280_temperature;BME280_humidity;BME280_pressure;Samples;Min_cycle;Max_cycle;Signal;HPM_P1;HPM_P2
2022/01/26 00:06:48;;;;;;;11.70;6.68;;;2.80;99.90;;;;;;5067500;28;20032;-84
2022/01/26 00:09:14;;;;;;;9.70;6.78;;;2.80;99.90;;;;;;5075460;28;20029;-84
2022/01/26 00:11:53;;;;;;;13.27;6.57;;;2.80;99.90;;;;;;5074922;28;20036;-84
2022/01/26 00:14:18;;;;;;;12.85;6.50;;;2.80;99.90;;;;;;5075352;28;20028;-84
2022/01/26 00:16:56;;;;;;;12.43;7.13;;;2.70;99.90;;;;;;5075408;28;20032;-84
2022/01/26 00:19:31;;;;;;;9.77;6.10;;;2.70;99.90;;;;;;5075340;28;20500;-85
2022/01/26 00:21:59;;;;;;;11.23;5.60;;;2.70;99.90;;;;;;5075379;28;20025;-84
2022/01/26 00:25:04;;;;;;;12.68;5.78;;;2.70;99.90;;;;;;5074286;28;20028;-85
2022/01/26 00:27:43;;;;;;;7.90;5.65;;;2.70;99.90;;;;;;5074996;28;20108;-85
2022/01/26 00:38:52;;;;;;;11.18;6.32;;;2.70;99.90;;;;;;5074883;28;20024;-85
2022/01/26 00:41:36;;;;;;;13.15;7.07;;;2.70;99.90;;;;;;5074613;28;20029;-85
2022/01/26 00:44:02;;;;;;;10.77;6.78;;;2.70;99.90;;;;;;5075078;28;20111;-85
2022/01/26 00:46:36;;;;;;;15.40;7.47;;;2.70;99.90;;;;;;5088497;28;20115;-84
2022/01/26 00:49:01;;;;;;;14.75;8.20;;;2.60;99.90;;;;;;5095030;28;20043;-84
2022/01/26 00:51:27;;;;;;;16.05;9.30;;;2.60;99.90;;;;;;5076513;28;20133;-84
2022/01/26 00:54:01;;;;;;;18.80;8.90;;;2.60;99.90;;;;;;5077039;28;20031;-85
2022/01/26 00:56:27;;;;;;;18.23;9.18;;;2.60;99.90;;;;;;5074228;28;20456;-84
2022/01/26 00:59:11;;;;;;;21.83;10.10;;;2.70;99.90;;;;;;5074596;28;20027;-85
2022/01/26 01:01:37;;;;;;;16.10;9.30;;;2.50;99.90;;;;;;5074521;28;20117;-85
2022/01/26 01:04:03;;;;;;;21.00;9.52;;;2.60;99.90;;;;;;5074476;28;20435;-85
2022/01/26 01:06:37;;;;;;;20.70;10.02;;;2.60;99.90;;;;;;5087164;28;20020;-85
2022/01/26 01:09:03;;;;;;;18.88;9.95;;;2.60;99.90;;;;;;5072917;28;20090;-85
2022/01/26 01:11:29;;;;;;;18.13;9.75;;;2.50;99.90;;;;;;5073776;28;20024;-85
2022/01/26 01:13:56;;;;;;;20.55;10.35;;;2.50;99.90;;;;;;5074223;28;20020;-84
2022/01/26 01:16:23;;;;;;;22.35;10.18;;;2.40;99.90;;;;;;5072850;28;20052;-85
2022/01/26 01:19:05;;;;;;;19.75;9.85;;;2.40;99.90;;;;;;5084432;28;20434;-84
2022/01/26 01:22:04;;;;;;;18.63;10.13;;;2.40;99.90;;;;;;5094103;28;20500;-85
2022/01/26 01:24:49;;;;;;;17.88;8.35;;;2.40;99.90;;;;;;5092632;28;20028;-85
2022/01/26 01:29:45;;;;;;;20.02;9.02;;;2.50;99.90;;;;;;5094558;28;20028;-84
2022/01/26 01:32:14;;;;;;;19.42;10.07;;;2.50;99.90;;;;;;5053812;28;20025;-84
2022/01/26 01:34:41;;;;;;;18.10;9.80;;;2.50;99.90;;;;;;5053794;28;20044;-84
2022/01/26 01:37:15;;;;;;;17.60;9.13;;;2.50;99.90;;;;;;5072625;28;20040;-85
2022/01/26 01:39:43;;;;;;;17.90;9.32;;;2.50;99.90;;;;;;5073818;28;20951;-84
2022/01/26 01:42:18;;;;;;;19.75;9.18;;;2.50;99.90;;;;;;5074637;28;20052;-84
2022/01/26 01:44:43;;;;;;;21.10;10.73;;;2.40;99.90;;;;;;5092629;28;20039;-84
2022/01/26 01:47:18;;;;;;;19.30;9.48;;;2.50;99.90;;;;;;5093735;28;20262;-84
2022/01/26 01:49:44;;;;;;;19.75;10.00;;;2.50;99.90;;;;;;5093427;28;20119;-84
2022/01/26 01:52:14;;;;;;;16.02;9.05;;;2.50;99.90;;;;;;5092029;28;20548;-84
2022/01/26 01:54:51;;;;;;;21.23;10.45;;;2.50;99.90;;;;;;5085081;28;20039;-84
2022/01/26 01:57:23;;;;;;;22.85;10.55;;;2.50;99.90;;;;;;5086355;28;20066;-84
2022/01/26 01:59:49;;;;;;;18.88;10.20;;;2.40;99.90;;;;;;5073485;28;20032;-84
2022/01/26 02:02:24;;;;;;;19.48;9.95;;;2.40;99.90;;;;;;5073919;28;20020;-84
2022/01/26 02:04:49;;;;;;;18.93;9.17;;;2.40;99.90;;;;;;5073360;28;20028;-84
2022/01/26 02:07:25;;;;;;;17.30;9.43;;;2.50;99.90;;;;;;5073229;28;20483;-84
2022/01/26 02:09:50;;;;;;;;;;;2.40;99.90;;;;;;5072219;28;20026;-84
2022/01/26 02:12:25;;;;;;;;;;;2.40;99.90;;;;;;5073335;28;20279;-84
2022/01/26 02:15:02;;;;;;;19.55;8.98;;;2.40;99.90;;;;;;5071779;28;19904;-84
2022/01/26 02:18:04;;;;;;;18.90;9.00;;;2.40;99.90;;;;;;5073327;28;20029;-84
2022/01/26 02:51:47;;;;;;;22.08;9.80;;;2.40;99.90;;;;;;5072288;28;20070;-84
2022/01/26 02:57:04;;;;;;;27.08;11.27;;;2.30;99.90;;;;;;5072696;28;20024;-84
2022/01/26 03:02:51;;;;;;;24.38;11.55;;;2.20;99.90;;;;;;5072513;28;20376;-84
2022/01/26 03:05:09;;;;;;;26.90;11.73;;;2.10;99.90;;;;;;5069888;28;20480;-84
2022/01/26 03:10:23;;;;;;;25.45;11.63;;;2.10;99.90;;;;;;5072506;28;20372;-84
2022/01/26 03:12:57;;;;;;;23.10;10.77;;;2.10;99.90;;;;;;5072453;28;20017;-85
2022/01/26 03:15:42;;;;;;;24.95;10.45;;;2.10;99.90;;;;;;5071357;28;20025;-85
2022/01/26 03:20:48;;;;;;;25.17;10.93;;;2.10;99.90;;;;;;5072715;28;20458;-85
2022/01/26 03:29:09;;;;;;;23.65;10.70;;;2.10;99.90;;;;;;5052428;28;20094;-84
2022/01/26 03:34:11;;;;;;;22.73;10.23;;;2.00;99.90;;;;;;5072606;28;20032;-85
2022/01/26 03:36:51;;;;;;;25.48;10.57;;;2.00;99.90;;;;;;5077742;28;20468;-85
2022/01/26 03:39:19;;;;;;;23.75;9.00;;;2.00;99.90;;;;;;5071961;28;20024;-84
2022/01/26 03:41:49;;;;;;;30.00;11.20;;;2.00;99.90;;;;;;5070747;28;20380;-85
2022/01/26 03:44:28;;;;;;;22.52;10.32;;;2.00;99.90;;;;;;5072315;28;20442;-84
2022/01/26 03:46:54;;;;;;;24.75;10.90;;;2.00;99.90;;;;;;5070949;28;20431;-85
2022/01/26 03:49:27;;;;;;;29.67;11.30;;;1.90;99.90;;;;;;5070764;28;20056;-85
2022/01/26 03:51:54;;;;;;;27.45;12.30;;;1.90;99.90;;;;;;5071901;28;20048;-85
2022/01/26 03:54:20;;;;;;;25.25;9.77;;;1.90;99.90;;;;;;5072155;28;20021;-85
2022/01/26 03:56:46;;;;;;;21.85;9.68;;;1.90;99.90;;;;;;5072112;28;20016;-84
2022/01/26 03:59:13;;;;;;;31.33;14.02;;;2.10;99.90;;;;;;5073443;28;20048;-85
2022/01/26 04:01:39;;;;;;;28.52;14.23;;;2.00;99.90;;;;;;5075695;28;20076;-85
2022/01/26 04:04:05;;;;;;;32.22;14.38;;;2.00;99.90;;;;;;5075535;28;20108;-85
2022/01/26 04:06:33;;;;;;;21.80;11.93;;;2.00;99.90;;;;;;5074301;28;20024;-85
2022/01/26 04:09:00;;;;;;;20.02;10.73;;;2.10;99.90;;;;;;5075322;28;20035;-84
2022/01/26 04:11:40;;;;;;;28.42;11.95;;;2.00;99.90;;;;;;5075095;28;20021;-84
2022/01/26 04:14:09;;;;;;;31.00;13.55;;;2.10;99.90;;;;;;5075177;28;20074;-84
2022/01/26 04:17:08;;;;;;;25.58;13.13;;;2.10;99.90;;;;;;5075514;28;20016;-85
2022/01/26 04:19:35;;;;;;;22.10;12.15;;;2.10;99.90;;;;;;5075159;28;20025;-84
2022/01/26 04:22:24;;;;;;;30.60;11.48;;;2.10;99.90;;;;;;5075128;28;20081;-84
2022/01/26 04:24:52;;;;;;;24.25;11.68;;;2.10;99.90;;;;;;5074946;28;20024;-85
2022/01/26 04:27:25;;;;;;;22.88;11.48;;;2.10;99.90;;;;;;5075248;28;20109;-84
2022/01/26 04:30:04;;;;;;;33.95;12.25;;;2.10;99.90;;;;;;5074079;28;20078;-84
2022/01/26 04:32:30;;;;;;;29.88;11.98;;;2.10;99.90;;;;;;5075216;28;20476;-84
2022/01/26 04:35:19;;;;;;;21.67;12.27;;;2.10;99.90;;;;;;5074913;28;20024;-84
2022/01/26 04:40:41;;;;;;;34.55;13.25;;;2.10;99.90;;;;;;5058502;28;20350;-85
2022/01/26 04:43:14;;;;;;;29.27;12.30;;;2.10;99.90;;;;;;5084227;28;20030;-85
2022/01/26 04:45:52;;;;;;;21.90;11.68;;;2.10;99.90;;;;;;5074372;28;20032;-85
2022/01/26 04:48:19;;;;;;;27.77;13.10;;;2.10;99.90;;;;;;5073691;28;20025;-85
2022/01/26 04:50:46;;;;;;;26.20;12.55;;;2.10;99.90;;;;;;5073842;28;20415;-85
2022/01/26 04:53:11;;;;;;;23.58;12.60;;;2.20;99.90;;;;;;5074098;28;20041;-84
2022/01/26 04:55:43;;;;;;;30.33;13.52;;;2.20;99.90;;;;;;5072710;28;20426;-85
2022/01/26 04:58:08;;;;;;;22.83;12.35;;;2.20;99.90;;;;;;5074480;28;20056;-85
2022/01/26 05:00:34;;;;;;;21.83;11.05;;;2.20;99.90;;;;;;5074487;28;20052;-85
2022/01/26 05:03:06;;;;;;;30.35;13.93;;;2.20;99.90;;;;;;5074514;28;20029;-85
2022/01/26 05:05:31;;;;;;;33.92;15.57;;;2.20;99.90;;;;;;5073130;28;20032;-86
2022/01/26 05:08:21;;;;;;;25.73;12.98;;;2.20;99.90;;;;;;5094662;28;20388;-85
2022/01/26 05:10:46;;;;;;;29.23;13.82;;;2.20;99.90;;;;;;5090307;28;20082;-85
2022/01/26 05:13:14;;;;;;;26.83;12.63;;;2.30;99.90;;;;;;5076895;28;20032;-85
2022/01/26 05:16:12;;;;;;;30.58;14.90;;;2.20;99.90;;;;;;5074238;28;20020;-85
2022/01/26 05:18:38;;;;;;;24.77;12.82;;;2.20;99.90;;;;;;5074218;28;20044;-85
2022/01/26 05:21:14;;;;;;;24.80;12.57;;;2.20;99.90;;;;;;5074107;28;20507;-84
2022/01/26 05:23:39;;;;;;;26.42;13.10;;;2.20;99.90;;;;;;5072466;28;20021;-84
2022/01/26 05:26:10;;;;;;;27.55;13.60;;;2.30;99.90;;;;;;5072679;28;20112;-85
2022/01/26 05:28:36;;;;;;;28.42;13.70;;;2.30;99.90;;;;;;5072612;28;20157;-85
2022/01/26 05:31:01;;;;;;;25.25;13.18;;;2.30;99.90;;;;;;5073762;28;20096;-85
2022/01/26 05:33:50;;;;;;;30.33;13.85;;;2.30;99.90;;;;;;5073703;28;20051;-85
2022/01/26 05:36:16;;;;;;;26.48;13.27;;;2.30;99.90;;;;;;5073117;28;20023;-85
2022/01/26 05:38:43;;;;;;;26.15;12.30;;;2.30;99.90;;;;;;5072131;28;20033;-84
2022/01/26 05:41:12;;;;;;;22.27;11.68;;;2.30;99.90;;;;;;5073685;28;20086;-85
2022/01/26 05:43:53;;;;;;;29.58;13.27;;;2.30;99.90;;;;;;5073338;28;20021;-84
2022/01/26 05:46:36;;;;;;;24.52;11.18;;;2.30;99.90;;;;;;5073226;28;20089;-85
2022/01/26 05:49:02;;;;;;;23.67;12.57;;;2.20;99.90;;;;;;5073017;28;20062;-85
2022/01/26 05:51:37;;;;;;;22.52;10.98;;;2.20;99.90;;;;;;5071657;28;20021;-85
2022/01/26 05:54:04;;;;;;;24.35;12.93;;;2.20;99.90;;;;;;5067623;28;20024;-85
2022/01/26 05:57:01;;;;;;;23.88;11.63;;;2.30;99.90;;;;;;5073470;28;20020;-85
2022/01/26 05:59:27;;;;;;;20.50;11.27;;;2.30;99.90;;;;;;5053332;28;20107;-85
2022/01/26 06:01:54;;;;;;;20.70;10.95;;;2.30;99.90;;;;;;5069729;28;20115;-85
2022/01/26 06:04:19;;;;;;;33.05;16.02;;;2.30;99.90;;;;;;5073042;28;20473;-84
2022/01/26 06:06:45;;;;;;;26.98;14.38;;;2.30;99.90;;;;;;5073150;28;20035;-84
2022/01/26 06:09:21;;;;;;;27.08;13.05;;;2.20;99.90;;;;;;5072837;28;20017;-84
2022/01/26 06:11:46;;;;;;;;;;;2.20;99.90;;;;;;5073171;28;20032;-84
2022/01/26 06:14:13;;;;;;;38.13;17.40;;;2.30;99.90;;;;;;5089341;28;20279;-84
2022/01/26 06:16:39;;;;;;;33.53;15.30;;;2.30;99.90;;;;;;5088984;28;20097;-84
2022/01/26 06:19:06;;;;;;;26.67;14.05;;;2.30;99.90;;;;;;5071630;28;20464;-84
2022/01/26 06:21:32;;;;;;;29.58;14.75;;;2.30;99.90;;;;;;5071607;28;20112;-85
2022/01/26 06:24:05;;;;;;;27.63;13.63;;;2.30;99.90;;;;;;5072371;28;20056;-84
2022/01/26 06:26:31;;;;;;;33.05;14.80;;;2.30;99.90;;;;;;5073033;28;20388;-84
2022/01/26 06:29:03;;;;;;;30.88;13.23;;;2.30;99.90;;;;;;5072934;28;20024;-84
2022/01/26 06:31:29;;;;;;;31.73;14.30;;;2.40;99.90;;;;;;5072532;28;20021;-85
2022/01/26 06:33:58;;;;;;;37.03;18.08;;;2.30;99.90;;;;;;5072694;28;20038;-84
2022/01/26 06:36:23;;;;;;;43.92;19.70;;;2.40;99.90;;;;;;5072666;28;20023;-84
2022/01/26 06:38:52;;;;;;;46.58;21.25;;;2.40;99.90;;;;;;5071077;28;20104;-84
2022/01/26 06:41:23;;;;;;;39.25;17.83;;;2.30;99.90;;;;;;5079394;28;20027;-85
2022/01/26 06:43:54;;;;;;;35.45;17.52;;;2.30;99.90;;;;;;5077977;28;20020;-84
2022/01/26 06:46:27;;;;;;;37.95;17.67;;;2.30;99.90;;;;;;5072126;28;20073;-84
2022/01/26 06:49:36;;;;;;;30.48;14.77;;;2.30;99.90;;;;;;5072754;28;20385;-84
2022/01/26 06:51:53;;;;;;;31.70;15.90;;;2.30;99.90;;;;;;5066503;28;20028;-84
2022/01/26 06:54:19;;;;;;;34.38;16.48;;;2.30;99.90;;;;;;5070782;28;20040;-83
2022/01/26 06:57:12;;;;;;;36.45;17.83;;;2.40;99.90;;;;;;5072268;28;20101;-88
2022/01/26 06:59:38;;;;;;;37.85;15.50;;;2.40;99.90;;;;;;5072401;28;20103;-85
2022/01/26 07:02:19;;;;;;;30.10;14.10;;;2.40;99.90;;;;;;5072309;28;20115;-86
2022/01/26 07:04:45;;;;;;;29.95;14.80;;;2.40;99.90;;;;;;5072507;28;20020;-85
2022/01/26 07:07:36;;;;;;;31.40;15.45;;;2.30;99.90;;;;;;5072499;28;20031;-86
2022/01/26 07:10:04;;;;;;;28.77;15.45;;;2.30;99.90;;;;;;5070919;28;20024;-86
2022/01/26 07:12:38;;;;;;;34.13;15.32;;;2.30;99.90;;;;;;5070932;28;20067;-86
2022/01/26 07:23:12;;;;;;;32.60;12.73;;;2.30;99.90;;;;;;5092257;28;20384;-85
2022/01/26 07:25:40;;;;;;;29.02;14.02;;;2.30;99.90;;;;;;5092310;28;20024;-85
2022/01/26 07:28:05;;;;;;;24.55;11.93;;;2.30;99.90;;;;;;5092458;28;20081;-85
2022/01/26 07:30:37;;;;;;;25.55;12.70;;;2.30;99.90;;;;;;5092347;28;20479;-85
2022/01/26 07:33:04;;;;;;;29.75;12.80;;;2.30;99.90;;;;;;5078210;28;20032;-85
2022/01/26 07:35:31;;;;;;;25.17;12.15;;;2.30;99.90;;;;;;5075788;28;20042;-85
2022/01/26 07:38:01;;;;;;;26.35;13.10;;;2.30;99.90;;;;;;5075874;28;20088;-85
2022/01/26 07:40:27;;;;;;;26.17;12.32;;;2.20;99.90;;;;;;5075991;28;20026;-85
2022/01/26 07:42:53;;;;;;;32.08;15.07;;;2.20;99.90;;;;;;5075791;28;20124;-85
2022/01/26 07:45:30;;;;;;;31.90;14.50;;;2.30;99.90;;;;;;5075730;28;20048;-84
2022/01/26 07:47:56;;;;;;;28.77;13.82;;;2.20;99.90;;;;;;5086522;28;20020;-85
2022/01/26 07:50:23;;;;;;;35.50;15.35;;;2.30;99.90;;;;;;5094845;28;20365;-85
2022/01/26 07:52:50;;;;;;;35.78;14.65;;;2.30;99.90;;;;;;5090661;28;20511;-85
2022/01/26 07:55:19;;;;;;;40.45;16.20;;;2.20;99.90;;;;;;5075367;28;20469;-84
2022/01/26 07:57:46;;;;;;;37.05;17.23;;;2.30;99.90;;;;;;5075769;28;20020;-84
2022/01/26 08:00:14;;;;;;;33.72;16.25;;;2.30;99.90;;;;;;5074391;28;20025;-84
2022/01/26 08:02:40;;;;;;;39.30;16.48;;;2.30;99.90;;;;;;5074474;28;20085;-85
2022/01/26 08:05:06;;;;;;;43.53;16.42;;;2.20;99.90;;;;;;5074392;28;20029;-85
2022/01/26 08:07:35;;;;;;;42.92;16.40;;;2.20;99.90;;;;;;5075539;28;20111;-85
2022/01/26 08:10:01;;;;;;;43.22;17.88;;;2.20;99.90;;;;;;5075247;28;20367;-84
2022/01/26 08:12:27;;;;;;;47.72;18.63;;;2.10;99.90;;;;;;5073821;28;20031;-84
2022/01/26 08:14:55;;;;;;;43.72;18.35;;;2.10;99.90;;;;;;5076847;28;20559;-85
2022/01/26 08:17:20;;;;;;;41.40;17.15;;;2.10;99.90;;;;;;5088520;28;20017;-85
2022/01/26 08:19:59;;;;;;;39.35;16.38;;;2.10;99.90;;;;;;5086121;28;20031;-84
2022/01/26 08:22:26;;;;;;;40.10;16.40;;;2.10;99.90;;;;;;5095606;28;20020;-85
2022/01/26 08:24:52;;;;;;;40.70;17.70;;;2.10;99.90;;;;;;5089294;28;20016;-85
2022/01/26 08:27:21;;;;;;;36.05;16.65;;;2.10;99.90;;;;;;5079982;28;20104;-85
2022/01/26 08:29:51;;;;;;;39.20;17.45;;;2.10;99.90;;;;;;5090864;28;20028;-85
2022/01/26 08:32:17;;;;;;;44.20;18.60;;;2.10;99.90;;;;;;5095150;28;20050;-85
2022/01/26 08:34:43;;;;;;;46.90;19.30;;;2.20;99.90;;;;;;5095244;28;20035;-85
2022/01/26 08:37:17;;;;;;;44.25;18.55;;;2.10;99.90;;;;;;5095151;28;20024;-85
2022/01/26 08:39:43;;;;;;;50.63;20.23;;;2.10;99.90;;;;;;5094880;28;20024;-84
2022/01/26 08:42:09;;;;;;;51.53;21.38;;;2.10;99.90;;;;;;5093916;28;20047;-85
2022/01/26 08:44:35;;;;;;;47.33;19.63;;;2.10;99.90;;;;;;5094827;28;20104;-85
2022/01/26 08:47:03;;;;;;;51.22;19.92;;;2.20;99.90;;;;;;5093656;28;20056;-85
2022/01/26 08:49:29;;;;;;;58.20;22.27;;;2.10;99.90;;;;;;5094510;28;20028;-85
2022/01/26 08:51:54;;;;;;;57.42;20.92;;;2.10;99.90;;;;;;5094395;28;20381;-85
2022/01/26 08:54:51;;;;;;;57.95;22.45;;;2.10;99.90;;;;;;5094573;28;20029;-85
2022/01/26 08:57:17;;;;;;;59.70;23.27;;;2.10;99.90;;;;;;5094923;28;20115;-85
2022/01/26 08:59:43;;;;;;;66.88;24.00;;;2.00;99.90;;;;;;5094959;28;20099;-85
2022/01/26 09:02:09;;;;;;;59.65;22.20;;;1.90;99.90;;;;;;5094664;28;20100;-85
2022/01/26 09:04:35;;;;;;;63.60;22.48;;;1.90;99.90;;;;;;5093815;28;20468;-85
2022/01/26 09:07:16;;;;;;;70.63;25.10;;;1.90;99.90;;;;;;5090518;28;20025;-84
2022/01/26 09:09:44;;;;;;;70.38;23.48;;;1.90;99.90;;;;;;5073953;28;20354;-85
2022/01/26 09:12:19;;;;;;;76.18;25.90;;;1.90;99.90;;;;;;5076108;28;20031;-85
2022/01/26 09:14:46;;;;;;;69.65;25.33;;;1.90;99.90;;;;;;5094703;28;20048;-85
2022/01/26 09:17:13;;;;;;;66.80;26.02;;;2.00;99.90;;;;;;5091269;28;20089;-85
2022/01/26 09:19:42;;;;;;;74.20;23.85;;;1.90;99.90;;;;;;5074195;28;20028;-85
2022/01/26 09:22:13;;;;;;;72.40;24.92;;;2.00;99.90;;;;;;5074065;28;20024;-85
2022/01/26 09:24:42;;;;;;;78.20;26.70;;;2.00;99.90;;;;;;5073613;28;20162;-85
2022/01/26 09:27:09;;;;;;;78.80;26.67;;;2.00;99.90;;;;;;5073871;28;20103;-84
2022/01/26 09:29:52;;;;;;;85.28;26.70;;;2.00;99.90;;;;;;5073973;28;20503;-84
2022/01/26 09:32:18;;;;;;;96.80;32.70;;;1.90;99.90;;;;;;5073756;28;20499;-84
2022/01/26 09:35:04;;;;;;;87.50;29.27;;;1.90;99.90;;;;;;5072572;28;20033;-84
2022/01/26 09:37:30;;;;;;;91.85;29.10;;;1.80;99.90;;;;;;5073770;28;20082;-84
2022/01/26 09:40:27;;;;;;;87.68;29.73;;;1.80;99.90;;;;;;5073495;28;20465;-85
2022/01/26 09:42:55;;;;;;;98.60;31.90;;;1.80;99.90;;;;;;5073544;28;20033;-84
2022/01/26 09:45:22;;;;;;;91.13;29.10;;;1.80;99.90;;;;;;5073494;28;20025;-84
2022/01/26 09:47:47;;;;;;;84.72;26.30;;;1.80;99.90;;;;;;5073495;28;20435;-85
2022/01/26 09:50:19;;;;;;;90.28;29.48;;;1.80;99.90;;;;;;5071864;28;20028;-85
2022/01/26 09:52:56;;;;;;;84.15;27.92;;;1.80;99.90;;;;;;5072424;28;20564;-84
2022/01/26 09:55:22;;;;;;;94.18;28.63;;;1.90;99.90;;;;;;5073408;28;20082;-84
2022/01/26 09:58:05;;;;;;;86.45;29.00;;;1.90;99.90;;;;;;5072345;28;20029;-84
2022/01/26 10:00:30;;;;;;;89.78;28.00;;;1.80;99.90;;;;;;5073339;28;20020;-85
2022/01/26 10:03:10;;;;;;;86.97;27.88;;;1.80;99.90;;;;;;5071989;28;20115;-85
2022/01/26 10:05:45;;;;;;;88.88;27.35;;;1.90;99.90;;;;;;5073251;28;20060;-84
2022/01/26 10:19:26;;;;;;;105.43;31.33;;;1.90;99.90;;;;;;5073124;28;20032;-84
2022/01/26 10:21:58;;;;;;;89.63;30.35;;;2.00;99.90;;;;;;5072830;28;20472;-84
2022/01/26 10:24:29;;;;;;;104.68;32.55;;;1.90;99.90;;;;;;5072708;28;20484;-84
2022/01/26 10:27:04;;;;;;;101.60;30.05;;;2.00;99.90;;;;;;5072906;28;20039;-84
2022/01/26 10:29:33;;;;;;;;;;;2.10;99.90;;;;;;5073403;28;20104;-84
2022/01/26 10:32:10;;;;;;;102.50;32.58;;;2.00;99.90;;;;;;5072730;28;20384;-84
2022/01/26 10:34:36;;;;;;;101.13;31.23;;;2.10;99.90;;;;;;5072879;28;20020;-85
2022/01/26 10:37:10;;;;;;;92.40;28.50;;;2.00;99.90;;;;;;5072678;28;20035;-84
2022/01/26 10:39:41;;;;;;;98.85;30.98;;;2.00;99.90;;;;;;5071232;28;20024;-84
2022/01/26 10:42:19;;;;;;;91.20;29.67;;;2.10;99.90;;;;;;5072851;28;20024;-84
2022/01/26 10:45:00;;;;;;;97.85;28.45;;;2.20;99.90;;;;;;5072754;28;20020;-84
2022/01/26 10:47:36;;;;;;;93.90;29.42;;;2.20;99.90;;;;;;5073107;28;20020;-83
2022/01/26 10:50:48;;;;;;;93.57;27.73;;;2.10;99.90;;;;;;5072872;28;20029;-84
2022/01/26 10:53:36;;;;;;;97.40;26.65;;;2.00;99.90;;;;;;5070822;28;20461;-84
2022/01/26 10:56:02;;;;;;;85.32;26.85;;;2.00;99.90;;;;;;5071299;28;20475;-83
2022/01/26 10:58:28;;;;;;;94.55;29.38;;;2.00;99.90;;;;;;5072630;28;20081;-84
2022/01/26 11:00:55;;;;;;;88.80;26.98;;;2.00;99.90;;;;;;5072454;28;20550;-84
2022/01/26 11:03:28;;;;;;;76.93;25.55;;;2.00;99.90;;;;;;5072488;28;20032;-84
2022/01/26 11:05:53;;;;;;;87.45;28.50;;;2.00;99.90;;;;;;5072604;28;20032;-84
2022/01/26 11:08:36;;;;;;;85.00;26.90;;;2.00;99.90;;;;;;5073844;28;20112;-84
2022/01/26 11:11:02;;;;;;;74.30;26.38;;;2.00;99.90;;;;;;5076590;28;20021;-84
2022/01/26 11:13:42;;;;;;;73.30;25.77;;;2.10;99.90;;;;;;5076461;28;20095;-83
2022/01/26 11:16:09;;;;;;;79.13;26.10;;;2.00;99.90;;;;;;5076586;28;20083;-84
2022/01/26 11:18:49;;;;;;;68.60;24.75;;;2.10;99.90;;;;;;5076621;28;20012;-84
2022/01/26 11:21:29;;;;;;;92.90;29.63;;;2.10;99.90;;;;;;5074120;28;20066;-84
2022/01/26 11:24:20;;;;;;;83.60;27.58;;;2.10;99.90;;;;;;5075456;28;20017;-84
2022/01/26 11:26:47;;;;;;;75.57;25.77;;;2.10;99.90;;;;;;5074913;28;20021;-85
2022/01/26 11:29:35;;;;;;;79.30;26.88;;;2.10;99.90;;;;;;5091990;28;20030;-85
2022/01/26 11:32:17;;;;;;;86.85;27.38;;;2.10;99.90;;;;;;5094993;28;20043;-84
2022/01/26 11:34:47;;;;;;;72.68;25.05;;;2.20;99.90;;;;;;5096430;28;20028;-84
2022/01/26 11:37:37;;;;;;;78.55;25.77;;;2.20;99.90;;;;;;5095192;28;20475;-84
2022/01/26 11:46:17;;;;;;;80.35;26.15;;;2.20;99.90;;;;;;5076137;28;20531;-83
2022/01/26 11:48:43;;;;;;;83.72;27.05;;;2.20;99.90;;;;;;5075859;28;20059;-85
2022/01/26 11:51:09;;;;;;;78.47;25.98;;;2.20;99.90;;;;;;5074303;28;20135;-84
2022/01/26 11:53:34;;;;;;;89.07;29.67;;;2.20;99.90;;;;;;5073984;28;20607;-84
2022/01/26 11:56:14;;;;;;;88.50;28.17;;;2.20;99.90;;;;;;5075531;28;20025;-84
2022/01/26 11:58:43;;;;;;;83.45;28.88;;;2.20;99.90;;;;;;5083581;28;20016;-84
2022/01/26 12:04:04;;;;;;;90.70;27.38;;;2.10;99.90;;;;;;5095639;28;20028;-84
2022/01/26 12:06:48;;;;;;;81.93;26.52;;;2.10;99.90;;;;;;5095893;28;20066;-84
2022/01/26 12:09:17;;;;;;;83.30;28.85;;;2.10;99.90;;;;;;5095489;28;20061;-84
2022/01/26 12:12:12;;;;;;;72.10;24.92;;;2.20;99.90;;;;;;5085791;28;20450;-84
2022/01/26 12:14:38;;;;;;;81.65;25.80;;;2.20;99.90;;;;;;5074092;28;20120;-84
2022/01/26 12:17:09;;;;;;;79.22;27.13;;;2.10;99.90;;;;;;5075396;28;20425;-84
2022/01/26 12:19:48;;;;;;;73.78;25.02;;;2.20;99.90;;;;;;5074529;28;20032;-84
2022/01/26 12:36:29;;;;;;;74.22;26.45;;;2.10;99.90;;;;;;5095538;28;20044;-85
2022/01/26 12:39:00;;;;;;;70.78;26.48;;;2.10;99.90;;;;;;5088764;28;20028;-85
2022/01/26 12:41:37;;;;;;;70.93;25.25;;;2.20;99.90;;;;;;5075091;28;20016;-85
2022/01/26 12:44:12;;;;;;;79.57;29.25;;;2.20;99.90;;;;;;5074729;28;20403;-85
2022/01/26 12:46:40;;;;;;;92.28;31.75;;;2.20;99.90;;;;;;5075055;28;20028;-85
2022/01/26 12:49:10;;;;;;;92.57;34.17;;;2.20;99.90;;;;;;5073624;28;20028;-85
2022/01/26 12:52:02;;;;;;;81.43;31.73;;;2.20;99.90;;;;;;5074426;28;20374;-85
2022/01/26 12:54:28;;;;;;;89.82;34.10;;;2.20;99.90;;;;;;5074483;28;20477;-84
2022/01/26 12:57:03;;;;;;;86.03;32.90;;;2.30;99.90;;;;;;5073435;28;20105;-84
2022/01/26 12:59:29;;;;;;;;;;;2.20;99.90;;;;;;5075443;28;20074;-84
2022/01/26 13:01:54;;;;;;;76.40;29.83;;;2.20;99.90;;;;;;5074631;28;19904;-84
2022/01/26 13:04:27;;;;;;;83.88;32.22;;;2.10;99.90;;;;;;5089878;28;20055;-84
2022/01/26 13:06:53;;;;;;;75.63;28.90;;;2.10;99.90;;;;;;5094849;28;20066;-85
2022/01/26 13:09:25;;;;;;;81.95;30.08;;;2.10;99.90;;;;;;5094257;28;20035;-84
2022/01/26 13:11:51;;;;;;;73.75;29.08;;;2.10;99.90;;;;;;5094760;28;20527;-84
2022/01/26 13:14:37;;;;;;;72.35;27.38;;;2.10;99.90;;;;;;5093014;28;20024;-84
2022/01/26 13:20:29;;;;;;;;;;;2.20;99.90;;;;;;5094948;28;20077;-85
2022/01/26 13:50:24;;;;;;;79.95;28.02;;;2.60;99.90;;;;;;5017054;28;20030;-84
2022/01/26 13:52:56;;;;;;;80.32;30.85;;;2.60;99.90;;;;;;5080269;28;20492;-84
2022/01/26 14:00:36;;;;;;;80.70;29.80;;;2.60;99.90;;;;;;5093917;28;20027;-84
2022/01/26 14:03:15;;;;;;;76.38;30.17;;;2.70;99.90;;;;;;5093410;28;20031;-84
2022/01/26 14:05:40;;;;;;;81.40;30.45;;;2.70;99.90;;;;;;5093537;28;20028;-84
2022/01/26 14:08:16;;;;;;;75.95;30.00;;;2.70;99.90;;;;;;5093190;28;20035;-84
2022/01/26 14:10:46;;;;;;;73.10;29.92;;;2.70;99.90;;;;;;5093146;28;20028;-84
2022/01/26 14:13:18;;;;;;;91.30;33.13;;;2.80;99.90;;;;;;5091871;28;20111;-84
2022/01/26 14:15:46;;;;;;;85.10;33.70;;;2.70;99.90;;;;;;5088775;28;20024;-84
2022/01/26 14:19:01;;;;;;;79.78;31.75;;;2.70;99.90;;;;;;5072633;28;20513;-84
2022/01/26 14:21:33;;;;;;;95.32;34.00;;;2.60;99.90;;;;;;5052834;28;20119;-84
2022/01/26 14:26:51;;;;;;;88.10;32.20;;;2.60;99.90;;;;;;5072828;28;20028;-84
2022/01/26 14:29:36;;;;;;;92.70;35.33;;;2.70;99.90;;;;;;5072611;28;20033;-84
2022/01/26 14:32:19;;;;;;;86.43;33.40;;;2.60;99.90;;;;;;5072969;28;20025;-84
2022/01/26 14:35:10;;;;;;;95.38;36.10;;;2.60;99.90;;;;;;5072698;28;20016;-85
2022/01/26 14:54:13;;;;;;;87.22;35.00;;;2.60;99.90;;;;;;5056971;28;20067;-84
2022/01/26 15:40:30;;;;;;;75.72;29.25;;;2.80;99.90;;;;;;5092860;28;20035;-84
2022/01/26 16:16:33;;;;;;;70.15;27.42;;;2.70;99.90;;;;;;5090296;28;20047;-85
2022/01/26 16:21:08;;;;;;;72.10;28.25;;;2.70;99.90;;;;;;5095929;28;20035;-85
2022/01/26 16:37:49;;;;;;;88.43;32.40;;;2.70;99.90;;;;;;5074821;28;20042;-85
2022/01/26 17:46:58;;;;;;;65.53;25.40;;;2.70;99.90;;;;;;5074355;28;20027;-85
2022/01/26 18:49:12;;;;;;;107.22;36.40;;;2.60;99.90;;;;;;5081754;28;20028;-86
2022/01/26 18:50:21;;;;;;;107.75;36.65;;;2.60;99.90;;;;;;5071856;28;20035;-85
2022/01/26 18:52:47;;;;;;;99.45;32.92;;;2.70;99.90;;;;;;5072152;28;20059;-86
2022/01/26 18:55:14;;;;;;;100.38;34.83;;;2.60;99.90;;;;;;5072610;28;20020;-86
2022/01/26 18:57:40;;;;;;;95.60;34.20;;;2.70;99.90;;;;;;5072502;28;20099;-87
2022/01/26 19:00:12;;;;;;;95.20;33.67;;;2.70;99.90;;;;;;5071541;28;20054;-88
2022/01/26 19:02:38;;;;;;;84.68;32.00;;;2.70;99.90;;;;;;5079832;28;20066;-85
2022/01/26 19:05:05;;;;;;;90.38;32.47;;;2.70;99.90;;;;;;5072652;28;20032;-86
2022/01/26 19:07:35;;;;;;;96.97;33.20;;;2.70;99.90;;;;;;5070891;28;20016;-87
2022/01/26 19:10:02;;;;;;;91.45;31.05;;;2.70;99.90;;;;;;5072424;28;20480;-87
2022/01/26 19:13:09;;;;;;;91.03;32.40;;;2.60;99.90;;;;;;5071001;28;20025;-86
2022/01/26 19:15:35;;;;;;;93.18;32.38;;;2.60;99.90;;;;;;5072342;28;20561;-87
2022/01/26 19:18:27;;;;;;;85.15;32.22;;;2.60;99.90;;;;;;5072434;28;20021;-88
2022/01/26 19:21:07;;;;;;;92.10;31.60;;;2.60;99.90;;;;;;5051218;28;20121;-86
2022/01/26 19:23:57;;;;;;;86.30;30.05;;;2.60;99.90;;;;;;5071073;28;20052;-86
2022/01/26 19:26:29;;;;;;;88.28;30.55;;;2.60;99.90;;;;;;5072396;28;20039;-86
2022/01/26 19:29:18;;;;;;;78.22;29.75;;;2.60;99.90;;;;;;5073304;28;20028;-88
2022/01/26 19:43:36;;;;;;;71.78;25.77;;;2.70;99.90;;;;;;5094735;28;20031;-88
2022/01/26 19:51:33;;;;;;;70.40;24.98;;;2.70;99.90;;;;;;5075544;28;20031;-87